sensor_id;sensor_type;location;lat;lon;timestamp;P1;durP1;ratioP1;P2;durP2;ratioP2
2724;SDS011;1370;52.596;13.112;2023-04-15T00:02:18;20.63;;;16.60;;
2724;SDS011;1370;52.596;13.112;2023-04-15T00:04:44;22.97;;;16.47;;
2724;SDS011;1370;52.596;13.112;2023-04-15T00:07:10;17.37;;;15.50;;
2724;SDS011;1370;52.596;13.112;2023-04-15T00:09:35;20.30;;;16.40;;
2724;SDS011;1370;52.596;13.112;2023-04-15T00:12:00;20.50;;;16.97;;
2724;SDS011;1370;52.596;13.112;2023-04-15T00:14:26;22.37;;;17.50;;
2724;SDS011;1370;52.596;13.112;2023-04-15T00:16:52;24.87;;;19.20;;
2724;SDS011;1370;52.596;13.112;2023-04-15T00:19:20;29.20;;;19.47;;
2724;SDS011;1370;52.596;13.112;2023-04-15T00:21:45;27.20;;;18.33;;
2724;SDS011;1370;52.596;13.112;2023-04-15T00:24:11;24.93;;;18.70;;
2724;SDS011;1370;52.596;13.112;2023-04-15T00:26:36;24.87;;;20.00;;
2724;SDS011;1370;52.596;13.112;2023-04-15T00:29:01;24.03;;;18.10;;
2724;SDS011;1370;52.596;13.112;2023-04-15T00:31:28;28.03;;;18.70;;
2724;SDS011;1370;52.596;13.112;2023-04-15T00:33:54;28.17;;;18.53;;
2724;SDS011;1370;52.596;13.112;2023-04-15T00:36:20;27.07;;;19.63;;
2724;SDS011;1370;52.596;13.112;2023-04-15T00:38:45;31.03;;;21.17;;
2724;SDS011;1370;52.596;13.112;2023-04-15T00:41:13;30.50;;;20.50;;
2724;SDS011;1370;52.596;13.112;2023-04-15T00:43:38;26.43;;;18.60;;
2724;SDS011;1370;52.596;13.112;2023-04-15T00:46:04;28.53;;;19.70;;
2724;SDS011;1370;52.596;13.112;2023-04-15T00:48:30;30.70;;;21.17;;
2724;SDS011;1370;52.596;13.112;2023-04-15T00:50:56;32.67;;;21.03;;
2724;SDS011;1370;52.596;13.112;2023-04-15T00:53:22;33.47;;;21.73;;
2724;SDS011;1370;52.596;13.112;2023-04-15T00:55:47;30.13;;;20.63;;
2724;SDS011;1370;52.596;13.112;2023-04-15T00:58:13;26.27;;;19.97;;
2724;SDS011;1370;52.596;13.112;2023-04-15T01:00:38;27.20;;;20.37;;
2724;SDS011;1370;52.596;13.112;2023-04-15T01:03:04;33.10;;;21.93;;
2724;SDS011;1370;52.596;13.112;2023-04-15T01:05:30;35.87;;;22.27;;
2724;SDS011;1370;52.596;13.112;2023-04-15T01:07:55;31.97;;;21.80;;
2724;SDS011;1370;52.596;13.112;2023-04-15T01:10:21;32.70;;;21.77;;
2724;SDS011;1370;52.596;13.112;2023-04-15T01:12:46;34.93;;;21.37;;
2724;SDS011;1370;52.596;13.112;2023-04-15T01:15:12;32.27;;;23.80;;
2724;SDS011;1370;52.596;13.112;2023-04-15T01:17:37;31.10;;;24.23;;
2724;SDS011;1370;52.596;13.112;2023-04-15T01:20:03;34.27;;;25.30;;
2724;SDS011;1370;52.596;13.112;2023-04-15T01:22:29;36.23;;;24.80;;
2724;SDS011;1370;52.596;13.112;2023-04-15T01:25:05;31.90;;;23.43;;
2724;SDS011;1370;52.596;13.112;2023-04-15T01:27:34;44.03;;;25.83;;
2724;SDS011;1370;52.596;13.112;2023-04-15T01:30:04;37.07;;;24.10;;
2724;SDS011;1370;52.596;13.112;2023-04-15T01:32:30;36.10;;;25.27;;
2724;SDS011;1370;52.596;13.112;2023-04-15T01:34:55;41.10;;;25.03;;
2724;SDS011;1370;52.596;13.112;2023-04-15T01:37:21;40.80;;;25.40;;
2724;SDS011;1370;52.596;13.112;2023-04-15T01:39:46;36.87;;;23.67;;
2724;SDS011;1370;52.596;13.112;2023-04-15T01:42:11;42.47;;;26.30;;
2724;SDS011;1370;52.596;13.112;2023-04-15T01:44:37;40.97;;;26.30;;
2724;SDS011;1370;52.596;13.112;2023-04-15T01:47:02;42.73;;;27.63;;
2724;SDS011;1370;52.596;13.112;2023-04-15T01:49:27;38.90;;;25.50;;
2724;SDS011;1370;52.596;13.112;2023-04-15T01:51:53;46.10;;;28.73;;
2724;SDS011;1370;52.596;13.112;2023-04-15T01:54:18;38.97;;;26.17;;
2724;SDS011;1370;52.596;13.112;2023-04-15T01:56:43;41.43;;;25.43;;
2724;SDS011;1370;52.596;13.112;2023-04-15T01:59:08;42.30;;;25.50;;
2724;SDS011;1370;52.596;13.112;2023-04-15T02:01:34;49.53;;;26.13;;
2724;SDS011;1370;52.596;13.112;2023-04-15T02:03:59;43.23;;;27.83;;
2724;SDS011;1370;52.596;13.112;2023-04-15T02:06:25;47.47;;;29.00;;
2724;SDS011;1370;52.596;13.112;2023-04-15T02:08:52;40.93;;;27.30;;
2724;SDS011;1370;52.596;13.112;2023-04-15T02:11:17;49.03;;;28.13;;
2724;SDS011;1370;52.596;13.112;2023-04-15T02:13:43;44.47;;;28.10;;
2724;SDS011;1370;52.596;13.112;2023-04-15T02:16:15;42.93;;;28.90;;
2724;SDS011;1370;52.596;13.112;2023-04-15T02:18:42;43.03;;;27.03;;
2724;SDS011;1370;52.596;13.112;2023-04-15T02:21:08;49.70;;;29.90;;
2724;SDS011;1370;52.596;13.112;2023-04-15T02:23:34;43.90;;;26.77;;
2724;SDS011;1370;52.596;13.112;2023-04-15T02:25:59;46.53;;;27.50;;
2724;SDS011;1370;52.596;13.112;2023-04-15T02:28:24;46.93;;;28.10;;
2724;SDS011;1370;52.596;13.112;2023-04-15T02:30:51;48.23;;;28.63;;
2724;SDS011;1370;52.596;13.112;2023-04-15T02:33:17;39.50;;;26.77;;
2724;SDS011;1370;52.596;13.112;2023-04-15T02:35:43;49.30;;;29.70;;
2724;SDS011;1370;52.596;13.112;2023-04-15T02:38:09;43.83;;;27.87;;
2724;SDS011;1370;52.596;13.112;2023-04-15T02:40:35;45.40;;;27.00;;
2724;SDS011;1370;52.596;13.112;2023-04-15T02:43:01;47.20;;;30.60;;
2724;SDS011;1370;52.596;13.112;2023-04-15T02:45:26;47.27;;;29.90;;
2724;SDS011;1370;52.596;13.112;2023-04-15T02:47:52;44.47;;;30.17;;
2724;SDS011;1370;52.596;13.112;2023-04-15T02:50:17;41.70;;;27.17;;
2724;SDS011;1370;52.596;13.112;2023-04-15T02:52:42;49.93;;;31.17;;
2724;SDS011;1370;52.596;13.112;2023-04-15T02:55:08;43.53;;;28.20;;
2724;SDS011;1370;52.596;13.112;2023-04-15T02:57:34;42.63;;;27.53;;
2724;SDS011;1370;52.596;13.112;2023-04-15T03:00:01;49.77;;;29.27;;
2724;SDS011;1370;52.596;13.112;2023-04-15T03:02:32;47.67;;;28.47;;
2724;SDS011;1370;52.596;13.112;2023-04-15T03:04:58;46.00;;;28.93;;
2724;SDS011;1370;52.596;13.112;2023-04-15T03:07:23;45.23;;;29.67;;
2724;SDS011;1370;52.596;13.112;2023-04-15T03:09:48;47.60;;;28.17;;
2724;SDS011;1370;52.596;13.112;2023-04-15T03:12:14;42.70;;;29.40;;
2724;SDS011;1370;52.596;13.112;2023-04-15T03:14:39;46.43;;;30.30;;
2724;SDS011;1370;52.596;13.112;2023-04-15T03:17:04;47.60;;;29.50;;
2724;SDS011;1370;52.596;13.112;2023-04-15T03:19:29;47.87;;;28.80;;
2724;SDS011;1370;52.596;13.112;2023-04-15T03:21:55;43.43;;;28.13;;
2724;SDS011;1370;52.596;13.112;2023-04-15T03:24:21;45.50;;;30.50;;
2724;SDS011;1370;52.596;13.112;2023-04-15T03:26:46;40.77;;;28.30;;
2724;SDS011;1370;52.596;13.112;2023-04-15T03:29:11;42.53;;;28.23;;
2724;SDS011;1370;52.596;13.112;2023-04-15T03:31:37;44.13;;;28.13;;
2724;SDS011;1370;52.596;13.112;2023-04-15T03:34:02;43.93;;;29.00;;
2724;SDS011;1370;52.596;13.112;2023-04-15T03:36:28;47.20;;;29.70;;
2724;SDS011;1370;52.596;13.112;2023-04-15T03:38:54;43.23;;;28.50;;
2724;SDS011;1370;52.596;13.112;2023-04-15T03:41:20;42.07;;;27.20;;
2724;SDS011;1370;52.596;13.112;2023-04-15T03:43:46;45.43;;;28.60;;
2724;SDS011;1370;52.596;13.112;2023-04-15T03:46:12;46.07;;;31.20;;
2724;SDS011;1370;52.596;13.112;2023-04-15T03:48:37;42.00;;;27.43;;
2724;SDS011;1370;52.596;13.112;2023-04-15T03:51:02;47.17;;;28.80;;
2724;SDS011;1370;52.596;13.112;2023-04-15T03:53:28;38.03;;;26.90;;
2724;SDS011;1370;52.596;13.112;2023-04-15T03:55:53;44.97;;;28.23;;
2724;SDS011;1370;52.596;13.112;2023-04-15T03:58:18;42.13;;;27.50;;
2724;SDS011;1370;52.596;13.112;2023-04-15T04:00:43;42.83;;;30.03;;
2724;SDS011;1370;52.596;13.112;2023-04-15T04:03:09;46.57;;;30.40;;
2724;SDS011;1370;52.596;13.112;2023-04-15T04:05:34;46.07;;;28.30;;
2724;SDS011;1370;52.596;13.112;2023-04-15T04:08:02;45.20;;;29.37;;
2724;SDS011;1370;52.596;13.112;2023-04-15T04:10:28;42.33;;;28.13;;
2724;SDS011;1370;52.596;13.112;2023-04-15T04:12:53;41.70;;;27.33;;
2724;SDS011;1370;52.596;13.112;2023-04-15T04:15:18;38.53;;;27.67;;
2724;SDS011;1370;52.596;13.112;2023-04-15T04:17:44;45.77;;;27.07;;
2724;SDS011;1370;52.596;13.112;2023-04-15T04:20:09;46.93;;;27.60;;
2724;SDS011;1370;52.596;13.112;2023-04-15T04:22:38;42.50;;;28.00;;
2724;SDS011;1370;52.596;13.112;2023-04-15T04:25:04;43.00;;;26.83;;
2724;SDS011;1370;52.596;13.112;2023-04-15T04:27:31;40.00;;;26.90;;
2724;SDS011;1370;52.596;13.112;2023-04-15T04:29:56;41.73;;;27.30;;
2724;SDS011;1370;52.596;13.112;2023-04-15T04:32:21;43.77;;;26.80;;
2724;SDS011;1370;52.596;13.112;2023-04-15T04:34:46;40.03;;;27.40;;
2724;SDS011;1370;52.596;13.112;2023-04-15T04:37:12;43.83;;;26.97;;
2724;SDS011;1370;52.596;13.112;2023-04-15T04:39:37;40.60;;;25.83;;
2724;SDS011;1370;52.596;13.112;2023-04-15T04:42:02;36.63;;;25.10;;
2724;SDS011;1370;52.596;13.112;2023-04-15T04:44:28;42.03;;;25.83;;
2724;SDS011;1370;52.596;13.112;2023-04-15T04:46:53;40.40;;;26.57;;
2724;SDS011;1370;52.596;13.112;2023-04-15T04:49:18;45.37;;;26.40;;
2724;SDS011;1370;52.596;13.112;2023-04-15T04:51:44;45.13;;;28.00;;
2724;SDS011;1370;52.596;13.112;2023-04-15T04:54:10;44.30;;;28.20;;
2724;SDS011;1370;52.596;13.112;2023-04-15T04:56:36;46.33;;;27.70;;
2724;SDS011;1370;52.596;13.112;2023-04-15T04:59:03;40.73;;;24.40;;
2724;SDS011;1370;52.596;13.112;2023-04-15T05:01:28;41.20;;;25.30;;
2724;SDS011;1370;52.596;13.112;2023-04-15T05:03:54;37.20;;;25.07;;
2724;SDS011;1370;52.596;13.112;2023-04-15T05:06:19;40.93;;;27.60;;
2724;SDS011;1370;52.596;13.112;2023-04-15T05:08:45;37.00;;;25.77;;
2724;SDS011;1370;52.596;13.112;2023-04-15T05:11:11;39.90;;;26.33;;
2724;SDS011;1370;52.596;13.112;2023-04-15T05:13:37;45.50;;;26.33;;
2724;SDS011;1370;52.596;13.112;2023-04-15T05:16:03;35.80;;;25.53;;
2724;SDS011;1370;52.596;13.112;2023-04-15T05:18:29;45.17;;;25.00;;
2724;SDS011;1370;52.596;13.112;2023-04-15T05:20:54;39.30;;;25.03;;
2724;SDS011;1370;52.596;13.112;2023-04-15T05:23:20;35.33;;;24.57;;
2724;SDS011;1370;52.596;13.112;2023-04-15T05:25:45;39.93;;;25.77;;
2724;SDS011;1370;52.596;13.112;2023-04-15T05:28:10;37.40;;;23.50;;
2724;SDS011;1370;52.596;13.112;2023-04-15T05:30:36;36.10;;;24.77;;
2724;SDS011;1370;52.596;13.112;2023-04-15T05:33:01;37.87;;;23.50;;
2724;SDS011;1370;52.596;13.112;2023-04-15T05:35:26;31.00;;;23.07;;
2724;SDS011;1370;52.596;13.112;2023-04-15T05:37:52;37.63;;;24.93;;
2724;SDS011;1370;52.596;13.112;2023-04-15T05:40:17;31.20;;;23.30;;
2724;SDS011;1370;52.596;13.112;2023-04-15T05:42:42;35.57;;;23.40;;
2724;SDS011;1370;52.596;13.112;2023-04-15T05:45:08;32.10;;;23.17;;
2724;SDS011;1370;52.596;13.112;2023-04-15T05:47:34;36.80;;;25.03;;
2724;SDS011;1370;52.596;13.112;2023-04-15T05:50:01;33.43;;;24.40;;
2724;SDS011;1370;52.596;13.112;2023-04-15T05:52:27;38.03;;;24.57;;
2724;SDS011;1370;52.596;13.112;2023-04-15T05:54:52;39.17;;;24.70;;
2724;SDS011;1370;52.596;13.112;2023-04-15T05:57:17;35.90;;;23.70;;
2724;SDS011;1370;52.596;13.112;2023-04-15T05:59:43;34.53;;;22.60;;
2724;SDS011;1370;52.596;13.112;2023-04-15T06:02:08;31.90;;;22.40;;
2724;SDS011;1370;52.596;13.112;2023-04-15T06:04:34;34.23;;;24.40;;
2724;SDS011;1370;52.596;13.112;2023-04-15T06:06:59;31.73;;;23.67;;
2724;SDS011;1370;52.596;13.112;2023-04-15T06:09:25;37.27;;;22.33;;
2724;SDS011;1370;52.596;13.112;2023-04-15T06:11:50;31.77;;;24.40;;
2724;SDS011;1370;52.596;13.112;2023-04-15T06:14:16;31.77;;;22.67;;
2724;SDS011;1370;52.596;13.112;2023-04-15T06:16:41;31.87;;;22.80;;
2724;SDS011;1370;52.596;13.112;2023-04-15T06:19:06;29.27;;;21.57;;
2724;SDS011;1370;52.596;13.112;2023-04-15T06:21:31;31.30;;;23.40;;
2724;SDS011;1370;52.596;13.112;2023-04-15T06:23:58;28.60;;;20.50;;
2724;SDS011;1370;52.596;13.112;2023-04-15T06:26:25;27.90;;;21.77;;
2724;SDS011;1370;52.596;13.112;2023-04-15T06:28:50;29.73;;;21.50;;
2724;SDS011;1370;52.596;13.112;2023-04-15T06:31:15;28.13;;;20.00;;
2724;SDS011;1370;52.596;13.112;2023-04-15T06:33:41;29.07;;;21.40;;
2724;SDS011;1370;52.596;13.112;2023-04-15T06:36:06;29.93;;;21.50;;
2724;SDS011;1370;52.596;13.112;2023-04-15T06:38:31;31.50;;;21.60;;
2724;SDS011;1370;52.596;13.112;2023-04-15T06:40:57;27.33;;;20.43;;
2724;SDS011;1370;52.596;13.112;2023-04-15T06:43:22;26.33;;;20.13;;
2724;SDS011;1370;52.596;13.112;2023-04-15T06:45:48;35.60;;;22.17;;
2724;SDS011;1370;52.596;13.112;2023-04-15T06:48:13;28.33;;;21.03;;
2724;SDS011;1370;52.596;13.112;2023-04-15T06:50:38;30.60;;;21.10;;
2724;SDS011;1370;52.596;13.112;2023-04-15T06:53:04;28.03;;;19.70;;
2724;SDS011;1370;52.596;13.112;2023-04-15T06:55:29;26.70;;;21.10;;
2724;SDS011;1370;52.596;13.112;2023-04-15T06:57:55;28.80;;;19.57;;
2724;SDS011;1370;52.596;13.112;2023-04-15T07:00:20;23.03;;;19.13;;
2724;SDS011;1370;52.596;13.112;2023-04-15T07:02:46;24.93;;;18.57;;
2724;SDS011;1370;52.596;13.112;2023-04-15T07:05:11;23.33;;;18.77;;
2724;SDS011;1370;52.596;13.112;2023-04-15T07:07:39;23.60;;;18.00;;
2724;SDS011;1370;52.596;13.112;2023-04-15T07:10:05;22.90;;;19.73;;
2724;SDS011;1370;52.596;13.112;2023-04-15T07:12:31;20.80;;;17.73;;
2724;SDS011;1370;52.596;13.112;2023-04-15T07:14:56;28.17;;;17.77;;
2724;SDS011;1370;52.596;13.112;2023-04-15T07:17:22;18.87;;;17.03;;
2724;SDS011;1370;52.596;13.112;2023-04-15T07:19:47;21.73;;;18.40;;
2724;SDS011;1370;52.596;13.112;2023-04-15T07:22:15;20.97;;;16.97;;
2724;SDS011;1370;52.596;13.112;2023-04-15T07:24:43;22.30;;;16.50;;
2724;SDS011;1370;52.596;13.112;2023-04-15T07:27:09;20.23;;;16.50;;
2724;SDS011;1370;52.596;13.112;2023-04-15T07:29:37;19.70;;;16.40;;
2724;SDS011;1370;52.596;13.112;2023-04-15T07:32:02;28.07;;;17.10;;
2724;SDS011;1370;52.596;13.112;2023-04-15T07:34:30;17.97;;;16.10;;
2724;SDS011;1370;52.596;13.112;2023-04-15T07:36:55;20.93;;;16.20;;
2724;SDS011;1370;52.596;13.112;2023-04-15T07:39:25;22.80;;;17.73;;
2724;SDS011;1370;52.596;13.112;2023-04-15T07:41:53;19.20;;;15.50;;
2724;SDS011;1370;52.596;13.112;2023-04-15T07:44:19;20.60;;;16.73;;
2724;SDS011;1370;52.596;13.112;2023-04-15T07:46:44;19.37;;;16.60;;
2724;SDS011;1370;52.596;13.112;2023-04-15T07:49:10;20.80;;;16.87;;
2724;SDS011;1370;52.596;13.112;2023-04-15T07:51:36;17.17;;;15.47;;
2724;SDS011;1370;52.596;13.112;2023-04-15T07:54:01;20.60;;;15.53;;
2724;SDS011;1370;52.596;13.112;2023-04-15T07:56:27;18.87;;;14.40;;
2724;SDS011;1370;52.596;13.112;2023-04-15T07:58:52;17.43;;;15.63;;
2724;SDS011;1370;52.596;13.112;2023-04-15T08:01:17;18.50;;;16.60;;
2724;SDS011;1370;52.596;13.112;2023-04-15T08:03:43;21.87;;;17.00;;
2724;SDS011;1370;52.596;13.112;2023-04-15T08:06:08;18.90;;;16.90;;
2724;SDS011;1370;52.596;13.112;2023-04-15T08:08:33;23.73;;;18.30;;
2724;SDS011;1370;52.596;13.112;2023-04-15T08:10:58;20.27;;;16.83;;
2724;SDS011;1370;52.596;13.112;2023-04-15T08:13:24;20.93;;;17.93;;
2724;SDS011;1370;52.596;13.112;2023-04-15T08:15:52;22.93;;;17.10;;
2724;SDS011;1370;52.596;13.112;2023-04-15T08:18:37;18.43;;;16.57;;
2724;SDS011;1370;52.596;13.112;2023-04-15T08:21:02;17.97;;;15.90;;
2724;SDS011;1370;52.596;13.112;2023-04-15T08:23:28;19.47;;;16.10;;
2724;SDS011;1370;52.596;13.112;2023-04-15T08:25:54;20.27;;;17.00;;
2724;SDS011;1370;52.596;13.112;2023-04-15T08:28:19;16.93;;;14.83;;
2724;SDS011;1370;52.596;13.112;2023-04-15T08:30:45;26.27;;;16.83;;
2724;SDS011;1370;52.596;13.112;2023-04-15T08:33:10;18.33;;;15.20;;
2724;SDS011;1370;52.596;13.112;2023-04-15T08:35:35;19.23;;;16.57;;
2724;SDS011;1370;52.596;13.112;2023-04-15T08:38:01;18.57;;;16.20;;
2724;SDS011;1370;52.596;13.112;2023-04-15T08:40:26;18.70;;;16.90;;
2724;SDS011;1370;52.596;13.112;2023-04-15T08:43:00;19.93;;;17.07;;
2724;SDS011;1370;52.596;13.112;2023-04-15T08:45:27;19.93;;;16.53;;
2724;SDS011;1370;52.596;13.112;2023-04-15T08:47:52;19.10;;;17.20;;
2724;SDS011;1370;52.596;13.112;2023-04-15T08:50:20;18.27;;;16.40;;
2724;SDS011;1370;52.596;13.112;2023-04-15T08:52:46;19.07;;;15.60;;
2724;SDS011;1370;52.596;13.112;2023-04-15T08:55:11;18.77;;;16.37;;
2724;SDS011;1370;52.596;13.112;2023-04-15T08:57:37;19.93;;;15.20;;
2724;SDS011;1370;52.596;13.112;2023-04-15T09:00:04;19.77;;;15.57;;
2724;SDS011;1370;52.596;13.112;2023-04-15T09:02:30;19.30;;;17.30;;
2724;SDS011;1370;52.596;13.112;2023-04-15T09:04:55;25.47;;;16.37;;
2724;SDS011;1370;52.596;13.112;2023-04-15T09:07:21;19.50;;;15.90;;
2724;SDS011;1370;52.596;13.112;2023-04-15T09:09:47;17.83;;;16.13;;
2724;SDS011;1370;52.596;13.112;2023-04-15T09:12:12;24.73;;;16.40;;
2724;SDS011;1370;52.596;13.112;2023-04-15T09:14:39;26.03;;;17.10;;
2724;SDS011;1370;52.596;13.112;2023-04-15T09:17:04;21.50;;;18.50;;
2724;SDS011;1370;52.596;13.112;2023-04-15T09:19:30;21.40;;;15.03;;
2724;SDS011;1370;52.596;13.112;2023-04-15T09:21:58;16.83;;;15.10;;
2724;SDS011;1370;52.596;13.112;2023-04-15T09:24:24;19.53;;;17.13;;
2724;SDS011;1370;52.596;13.112;2023-04-15T09:26:53;16.33;;;14.63;;
2724;SDS011;1370;52.596;13.112;2023-04-15T09:29:23;17.17;;;15.37;;
2724;SDS011;1370;52.596;13.112;2023-04-15T09:31:49;16.43;;;14.90;;
2724;SDS011;1370;52.596;13.112;2023-04-15T09:34:14;17.10;;;15.30;;
2724;SDS011;1370;52.596;13.112;2023-04-15T09:39:11;18.40;;;16.57;;
2724;SDS011;1370;52.596;13.112;2023-04-15T09:41:36;20.50;;;14.87;;
2724;SDS011;1370;52.596;13.112;2023-04-15T09:44:02;17.27;;;14.90;;
2724;SDS011;1370;52.596;13.112;2023-04-15T09:46:41;15.73;;;14.07;;
2724;SDS011;1370;52.596;13.112;2023-04-15T09:49:07;16.70;;;15.00;;
2724;SDS011;1370;52.596;13.112;2023-04-15T09:51:36;16.87;;;15.07;;
2724;SDS011;1370;52.596;13.112;2023-04-15T09:54:01;16.63;;;15.03;;
2724;SDS011;1370;52.596;13.112;2023-04-15T09:56:34;16.77;;;14.97;;
2724;SDS011;1370;52.596;13.112;2023-04-15T09:59:05;17.67;;;15.50;;
2724;SDS011;1370;52.596;13.112;2023-04-15T10:01:31;21.37;;;15.27;;
2724;SDS011;1370;52.596;13.112;2023-04-15T10:03:56;16.27;;;14.53;;
2724;SDS011;1370;52.596;13.112;2023-04-15T10:06:23;16.97;;;15.10;;
2724;SDS011;1370;52.596;13.112;2023-04-15T10:08:50;16.27;;;14.70;;
2724;SDS011;1370;52.596;13.112;2023-04-15T10:11:16;17.47;;;15.63;;
2724;SDS011;1370;52.596;13.112;2023-04-15T10:13:42;21.57;;;16.50;;
2724;SDS011;1370;52.596;13.112;2023-04-15T10:16:13;18.80;;;16.43;;
2724;SDS011;1370;52.596;13.112;2023-04-15T10:18:43;23.40;;;16.00;;
2724;SDS011;1370;52.596;13.112;2023-04-15T10:21:10;23.17;;;20.13;;
2724;SDS011;1370;52.596;13.112;2023-04-15T10:23:35;20.53;;;18.33;;
2724;SDS011;1370;52.596;13.112;2023-04-15T10:26:02;19.03;;;17.00;;
2724;SDS011;1370;52.596;13.112;2023-04-15T10:28:28;18.17;;;16.33;;
2724;SDS011;1370;52.596;13.112;2023-04-15T10:30:54;18.23;;;16.30;;
2724;SDS011;1370;52.596;13.112;2023-04-15T10:33:21;17.17;;;15.53;;
2724;SDS011;1370;52.596;13.112;2023-04-15T10:35:48;22.93;;;16.30;;
2724;SDS011;1370;52.596;13.112;2023-04-15T10:41:20;17.70;;;15.83;;
2724;SDS011;1370;52.596;13.112;2023-04-15T10:43:51;20.13;;;17.07;;
2724;SDS011;1370;52.596;13.112;2023-04-15T10:46:20;18.17;;;16.23;;
2724;SDS011;1370;52.596;13.112;2023-04-15T10:48:50;20.60;;;16.03;;
2724;SDS011;1370;52.596;13.112;2023-04-15T10:51:27;26.27;;;16.50;;
2724;SDS011;1370;52.596;13.112;2023-04-15T10:53:57;26.83;;;16.93;;
2724;SDS011;1370;52.596;13.112;2023-04-15T10:56:23;19.00;;;16.00;;
2724;SDS011;1370;52.596;13.112;2023-04-15T10:58:48;18.53;;;16.60;;
2724;SDS011;1370;52.596;13.112;2023-04-15T11:01:14;22.67;;;17.47;;
2724;SDS011;1370;52.596;13.112;2023-04-15T11:03:40;17.90;;;16.00;;
2724;SDS011;1370;52.596;13.112;2023-04-15T11:06:06;18.40;;;16.00;;
2724;SDS011;1370;52.596;13.112;2023-04-15T11:11:20;19.43;;;15.80;;
2724;SDS011;1370;52.596;13.112;2023-04-15T11:13:46;18.00;;;15.47;;
2724;SDS011;1370;52.596;13.112;2023-04-15T11:16:12;17.30;;;15.47;;
2724;SDS011;1370;52.596;13.112;2023-04-15T11:18:38;16.40;;;14.27;;
2724;SDS011;1370;52.596;13.112;2023-04-15T11:21:04;16.13;;;14.53;;
2724;SDS011;1370;52.596;13.112;2023-04-15T11:26:01;17.00;;;15.30;;
2724;SDS011;1370;52.596;13.112;2023-04-15T11:28:29;18.40;;;15.83;;
2724;SDS011;1370;52.596;13.112;2023-04-15T11:30:55;17.77;;;16.17;;
2724;SDS011;1370;52.596;13.112;2023-04-15T11:33:22;19.73;;;16.47;;
2724;SDS011;1370;52.596;13.112;2023-04-15T11:35:48;21.23;;;16.80;;
2724;SDS011;1370;52.596;13.112;2023-04-15T11:38:14;18.93;;;16.87;;
2724;SDS011;1370;52.596;13.112;2023-04-15T11:40:40;19.53;;;17.30;;
2724;SDS011;1370;52.596;13.112;2023-04-15T11:45:35;19.17;;;17.20;;
2724;SDS011;1370;52.596;13.112;2023-04-15T11:48:08;18.87;;;16.60;;
2724;SDS011;1370;52.596;13.112;2023-04-15T11:50:34;19.00;;;15.40;;
2724;SDS011;1370;52.596;13.112;2023-04-15T11:53:01;17.40;;;15.50;;
2724;SDS011;1370;52.596;13.112;2023-04-15T11:55:28;18.00;;;15.97;;
2724;SDS011;1370;52.596;13.112;2023-04-15T12:00:55;19.40;;;17.40;;
2724;SDS011;1370;52.596;13.112;2023-04-15T12:03:23;32.80;;;16.50;;
2724;SDS011;1370;52.596;13.112;2023-04-15T12:11:19;19.73;;;17.63;;
2724;SDS011;1370;52.596;13.112;2023-04-15T12:13:52;16.83;;;15.13;;
2724;SDS011;1370;52.596;13.112;2023-04-15T12:16:18;18.80;;;16.10;;
2724;SDS011;1370;52.596;13.112;2023-04-15T12:18:50;23.83;;;17.87;;
2724;SDS011;1370;52.596;13.112;2023-04-15T12:21:19;20.47;;;15.20;;
2724;SDS011;1370;52.596;13.112;2023-04-15T12:23:49;16.77;;;15.17;;
2724;SDS011;1370;52.596;13.112;2023-04-15T12:26:16;18.83;;;16.93;;
2724;SDS011;1370;52.596;13.112;2023-04-15T12:28:42;19.77;;;17.17;;
2724;SDS011;1370;52.596;13.112;2023-04-15T12:31:08;18.30;;;16.40;;
2724;SDS011;1370;52.596;13.112;2023-04-15T12:33:34;30.37;;;19.60;;
2724;SDS011;1370;52.596;13.112;2023-04-15T12:35:59;17.37;;;15.87;;
2724;SDS011;1370;52.596;13.112;2023-04-15T12:38:25;18.50;;;16.20;;
2724;SDS011;1370;52.596;13.112;2023-04-15T12:40:50;18.20;;;16.33;;
2724;SDS011;1370;52.596;13.112;2023-04-15T12:43:15;24.07;;;17.23;;
2724;SDS011;1370;52.596;13.112;2023-04-15T12:45:41;18.20;;;16.30;;
2724;SDS011;1370;52.596;13.112;2023-04-15T12:48:06;21.03;;;17.13;;
2724;SDS011;1370;52.596;13.112;2023-04-15T12:50:33;20.60;;;16.90;;
2724;SDS011;1370;52.596;13.112;2023-04-15T12:52:58;18.20;;;15.57;;
2724;SDS011;1370;52.596;13.112;2023-04-15T12:55:23;19.50;;;16.03;;
2724;SDS011;1370;52.596;13.112;2023-04-15T12:57:48;18.23;;;16.30;;
2724;SDS011;1370;52.596;13.112;2023-04-15T13:00:14;23.07;;;16.97;;
2724;SDS011;1370;52.596;13.112;2023-04-15T13:02:40;20.93;;;17.80;;
2724;SDS011;1370;52.596;13.112;2023-04-15T13:05:07;16.83;;;15.03;;
2724;SDS011;1370;52.596;13.112;2023-04-15T13:07:33;20.83;;;16.47;;
2724;SDS011;1370;52.596;13.112;2023-04-15T13:09:58;15.57;;;13.93;;
2724;SDS011;1370;52.596;13.112;2023-04-15T13:12:23;17.20;;;14.77;;
2724;SDS011;1370;52.596;13.112;2023-04-15T13:14:49;20.80;;;16.50;;
2724;SDS011;1370;52.596;13.112;2023-04-15T13:17:14;17.43;;;15.73;;
2724;SDS011;1370;52.596;13.112;2023-04-15T13:19:41;17.33;;;15.53;;
2724;SDS011;1370;52.596;13.112;2023-04-15T13:22:06;18.90;;;16.93;;
2724;SDS011;1370;52.596;13.112;2023-04-15T13:24:32;17.30;;;15.60;;
2724;SDS011;1370;52.596;13.112;2023-04-15T13:26:58;15.33;;;13.83;;
2724;SDS011;1370;52.596;13.112;2023-04-15T13:29:23;18.63;;;16.00;;
2724;SDS011;1370;52.596;13.112;2023-04-15T13:31:48;17.67;;;15.23;;
2724;SDS011;1370;52.596;13.112;2023-04-15T13:34:13;16.57;;;14.97;;
2724;SDS011;1370;52.596;13.112;2023-04-15T13:36:39;18.20;;;13.77;;
2724;SDS011;1370;52.596;13.112;2023-04-15T13:39:04;16.70;;;15.00;;
2724;SDS011;1370;52.596;13.112;2023-04-15T13:41:30;16.00;;;14.23;;
2724;SDS011;1370;52.596;13.112;2023-04-15T13:43:56;16.60;;;14.70;;
2724;SDS011;1370;52.596;13.112;2023-04-15T13:46:22;19.40;;;14.57;;
2724;SDS011;1370;52.596;13.112;2023-04-15T13:48:47;16.43;;;14.63;;
2724;SDS011;1370;52.596;13.112;2023-04-15T13:51:12;18.20;;;14.10;;
2724;SDS011;1370;52.596;13.112;2023-04-15T13:53:38;14.83;;;13.33;;
2724;SDS011;1370;52.596;13.112;2023-04-15T13:56:03;18.13;;;13.87;;
2724;SDS011;1370;52.596;13.112;2023-04-15T13:58:28;16.83;;;14.73;;
2724;SDS011;1370;52.596;13.112;2023-04-15T14:00:54;17.20;;;14.03;;
2724;SDS011;1370;52.596;13.112;2023-04-15T14:03:19;16.30;;;14.53;;
2724;SDS011;1370;52.596;13.112;2023-04-15T14:05:45;16.50;;;14.20;;
2724;SDS011;1370;52.596;13.112;2023-04-15T14:08:10;16.30;;;14.90;;
2724;SDS011;1370;52.596;13.112;2023-04-15T14:10:35;18.57;;;15.30;;
2724;SDS011;1370;52.596;13.112;2023-04-15T14:13:01;15.23;;;13.80;;
2724;SDS011;1370;52.596;13.112;2023-04-15T14:15:26;16.40;;;14.80;;
2724;SDS011;1370;52.596;13.112;2023-04-15T14:17:51;15.90;;;14.03;;
2724;SDS011;1370;52.596;13.112;2023-04-15T14:20:17;16.50;;;14.87;;
2724;SDS011;1370;52.596;13.112;2023-04-15T14:22:42;21.03;;;15.77;;
2724;SDS011;1370;52.596;13.112;2023-04-15T14:25:07;15.97;;;14.40;;
2724;SDS011;1370;52.596;13.112;2023-04-15T14:27:33;16.13;;;13.87;;
2724;SDS011;1370;52.596;13.112;2023-04-15T14:29:58;16.03;;;13.67;;
2724;SDS011;1370;52.596;13.112;2023-04-15T14:32:24;16.40;;;14.83;;
2724;SDS011;1370;52.596;13.112;2023-04-15T14:34:50;16.33;;;14.87;;
2724;SDS011;1370;52.596;13.112;2023-04-15T14:37:15;14.97;;;13.67;;
2724;SDS011;1370;52.596;13.112;2023-04-15T14:39:40;17.10;;;15.30;;
2724;SDS011;1370;52.596;13.112;2023-04-15T14:42:06;16.40;;;14.80;;
2724;SDS011;1370;52.596;13.112;2023-04-15T14:44:31;19.60;;;14.50;;
2724;SDS011;1370;52.596;13.112;2023-04-15T14:46:56;15.17;;;13.80;;
2724;SDS011;1370;52.596;13.112;2023-04-15T14:49:21;17.30;;;14.50;;